createdAt,value
2023-03-28T00:01:01.599Z,2.89
2023-03-28T00:03:29.471Z,2.82
2023-03-28T00:05:57.932Z,2.79
2023-03-28T00:08:24.575Z,2.80
2023-03-28T00:10:51.143Z,2.71
2023-03-28T00:13:19.961Z,2.63
2023-03-28T00:15:46.888Z,2.60
2023-03-28T00:18:13.378Z,2.56
2023-03-28T00:20:45.243Z,2.53
2023-03-28T00:23:12.539Z,2.48
2023-03-28T00:25:41.627Z,2.39
2023-03-28T00:28:08.146Z,2.34
2023-03-28T00:30:34.654Z,2.32
2023-03-28T00:33:01.156Z,2.23
2023-03-28T00:35:27.573Z,2.32
2023-03-28T00:37:58.408Z,2.29
2023-03-28T00:40:26.036Z,2.27
2023-03-28T00:42:53.084Z,2.26
2023-03-28T00:45:21.595Z,2.28
2023-03-28T00:47:58.878Z,2.29
2023-03-28T00:50:30.627Z,2.29
2023-03-28T00:53:04.625Z,2.24
2023-03-28T00:55:46.693Z,2.19
2023-03-28T00:58:17.816Z,2.11
2023-03-28T01:00:47.528Z,2.04
2023-03-28T01:03:15.997Z,2.00
2023-03-28T01:05:44.097Z,1.97
2023-03-28T01:08:23.446Z,1.96
2023-03-28T01:10:50.559Z,1.96
2023-03-28T01:13:21.932Z,1.90
2023-03-28T01:15:51.906Z,1.97
2023-03-28T01:18:22.993Z,1.95
2023-03-28T01:21:08.343Z,1.93
2023-03-28T01:24:10.934Z,1.97
2023-03-28T01:26:50.899Z,1.94
2023-03-28T01:29:29.438Z,1.79
2023-03-28T01:32:01.845Z,1.82
2023-03-28T01:34:51.676Z,1.75
2023-03-28T01:37:25.956Z,1.73
2023-03-28T01:40:13.453Z,1.78
2023-03-28T01:42:55.190Z,1.76
2023-03-28T01:45:44.999Z,1.66
2023-03-28T01:48:14.244Z,1.72
2023-03-28T01:50:49.596Z,1.61
2023-03-28T01:53:30.435Z,1.62
2023-03-28T01:56:11.105Z,1.58
2023-03-28T01:58:50.039Z,1.60
2023-03-28T02:01:27.200Z,1.53
2023-03-28T02:04:00.954Z,1.52
2023-03-28T02:06:30.442Z,1.47
2023-03-28T02:08:57.521Z,1.57
2023-03-28T02:11:27.310Z,1.44
2023-03-28T02:14:09.782Z,1.52
2023-03-28T02:16:41.205Z,1.56
2023-03-28T02:19:09.363Z,1.47
2023-03-28T02:21:45.578Z,1.43
2023-03-28T02:24:12.551Z,1.41
2023-03-28T02:26:39.708Z,1.36
2023-03-28T02:29:08.967Z,1.27
2023-03-28T02:31:36.756Z,1.23
2023-03-28T02:34:03.454Z,1.25
2023-03-28T02:36:45.889Z,1.25
2023-03-28T02:39:38.965Z,1.27
2023-03-28T02:42:26.607Z,1.18
2023-03-28T02:45:17.702Z,1.11
2023-03-28T02:48:14.239Z,1.15
2023-03-28T02:50:57.478Z,1.14
2023-03-28T02:53:32.861Z,1.04
2023-03-28T02:56:11.822Z,1.07
2023-03-28T02:58:46.321Z,1.06
2023-03-28T03:01:14.589Z,1.04
2023-03-28T03:03:42.240Z,1.16
2023-03-28T03:06:09.244Z,1.07
2023-03-28T03:08:36.089Z,1.05
2023-03-28T03:11:02.450Z,1.10
2023-03-28T03:13:28.873Z,1.10
2023-03-28T03:15:56.093Z,0.98
2023-03-28T03:18:23.242Z,0.97
2023-03-28T03:20:50.223Z,0.98
2023-03-28T03:23:16.747Z,1.02
2023-03-28T03:25:43.384Z,0.98
2023-03-28T03:28:10.778Z,0.98
2023-03-28T03:30:37.135Z,0.96
2023-03-28T03:33:05.434Z,0.94
2023-03-28T03:35:33.396Z,0.96
2023-03-28T03:38:00.786Z,1.04
2023-03-28T03:40:27.319Z,1.08
2023-03-28T03:42:53.788Z,0.97
2023-03-28T03:45:20.220Z,0.95
2023-03-28T03:47:46.695Z,0.93
2023-03-28T03:50:13.672Z,1.01
2023-03-28T03:52:40.133Z,0.96
2023-03-28T03:55:07.482Z,0.95
2023-03-28T03:57:34.080Z,0.93
2023-03-28T04:00:01.947Z,0.91
2023-03-28T04:02:28.539Z,0.87
2023-03-28T04:04:57.171Z,0.84
2023-03-28T04:07:23.512Z,0.90
2023-03-28T04:09:49.867Z,0.93
2023-03-28T04:12:16.629Z,0.92
2023-03-28T04:14:42.959Z,0.84
2023-03-28T04:17:10.017Z,0.81
2023-03-28T04:19:40.601Z,0.57
2023-03-28T04:22:08.119Z,0.45
2023-03-28T04:24:37.103Z,0.59
2023-03-28T04:27:03.557Z,0.64
2023-03-28T04:29:32.818Z,0.67
2023-03-28T04:31:59.541Z,0.71
2023-03-28T04:34:30.065Z,0.71
2023-03-28T04:37:01.695Z,0.65
2023-03-28T04:39:33.701Z,0.69
2023-03-28T04:42:01.975Z,0.63
2023-03-28T04:44:29.400Z,0.66
2023-03-28T04:46:56.455Z,0.62
2023-03-28T04:49:23.123Z,0.70
2023-03-28T04:51:50.707Z,0.61
2023-03-28T04:54:17.711Z,0.53
2023-03-28T04:56:45.612Z,0.66
2023-03-28T04:59:12.508Z,0.61
2023-03-28T05:01:38.928Z,0.69
2023-03-28T05:04:05.506Z,0.66
2023-03-28T05:06:32.194Z,0.62
2023-03-28T05:08:58.656Z,0.68
2023-03-28T05:11:25.171Z,0.68
2023-03-28T05:13:51.948Z,0.64
2023-03-28T05:16:18.365Z,0.68
2023-03-28T05:18:44.782Z,0.69
2023-03-28T05:21:11.190Z,0.67
2023-03-28T05:23:37.570Z,0.58
2023-03-28T05:26:04.073Z,0.62
2023-03-28T05:28:31.359Z,0.73
2023-03-28T05:30:57.979Z,0.76
2023-03-28T05:33:25.560Z,0.75
2023-03-28T05:35:53.570Z,0.75
2023-03-28T05:38:19.948Z,0.77
2023-03-28T05:40:46.989Z,0.80
2023-03-28T05:43:13.425Z,0.76
2023-03-28T05:45:40.134Z,0.74
2023-03-28T05:48:06.542Z,0.80
2023-03-28T05:50:32.866Z,0.81
2023-03-28T05:52:59.171Z,0.87
2023-03-28T05:55:25.474Z,0.90
2023-03-28T05:57:51.986Z,0.89
2023-03-28T06:00:19.350Z,1.05
2023-03-28T06:02:46.640Z,1.10
2023-03-28T06:05:13.705Z,1.15
2023-03-28T06:07:42.857Z,1.13
2023-03-28T06:10:12.192Z,1.18
2023-03-28T06:12:38.869Z,1.15
2023-03-28T06:15:06.142Z,1.20
2023-03-28T06:17:32.585Z,1.31
2023-03-28T06:19:59.060Z,1.39
2023-03-28T06:22:26.539Z,1.48
2023-03-28T06:24:53.059Z,1.57
2023-03-28T06:27:19.440Z,1.73
2023-03-28T06:29:45.920Z,1.90
2023-03-28T06:32:12.644Z,2.00
2023-03-28T06:34:38.990Z,2.03
2023-03-28T06:37:05.515Z,2.10
2023-03-28T06:39:32.033Z,2.27
2023-03-28T06:41:59.686Z,2.36
2023-03-28T06:44:26.102Z,2.46
2023-03-28T06:46:52.502Z,2.42
2023-03-28T06:49:19.002Z,2.42
2023-03-28T06:51:45.596Z,2.48
2023-03-28T06:54:12.017Z,2.69
2023-03-28T06:56:38.365Z,2.55
2023-03-28T06:59:04.874Z,2.66
2023-03-28T07:01:31.264Z,2.75
2023-03-28T07:03:59.524Z,2.86
2023-03-28T07:06:27.660Z,2.96
2023-03-28T07:08:56.198Z,2.95
2023-03-28T07:11:22.787Z,3.19
2023-03-28T07:13:49.332Z,3.33
2023-03-28T07:16:16.609Z,3.43
2023-03-28T07:18:43.774Z,3.59
2023-03-28T07:21:12.996Z,3.56
2023-03-28T07:23:40.368Z,3.61
2023-03-28T07:26:11.049Z,3.87
2023-03-28T07:28:37.750Z,4.11
2023-03-28T07:31:05.386Z,4.31
2023-03-28T07:33:37.126Z,4.36
2023-03-28T07:36:14.087Z,4.54
2023-03-28T07:38:40.696Z,4.69
2023-03-28T07:41:07.969Z,4.79
2023-03-28T07:43:34.852Z,5.05
2023-03-28T07:46:06.699Z,5.39
2023-03-28T07:48:35.406Z,5.51
2023-03-28T07:51:02.933Z,5.59
2023-03-28T07:53:29.581Z,5.70
2023-03-28T07:55:56.342Z,5.71
2023-03-28T07:58:23.128Z,5.59
2023-03-28T08:00:49.886Z,5.85
2023-03-28T08:03:17.423Z,5.86
2023-03-28T08:05:51.637Z,5.91
2023-03-28T08:08:19.849Z,5.86
2023-03-28T08:10:50.872Z,6.00
2023-03-28T08:13:18.351Z,6.12
2023-03-28T08:15:44.823Z,6.07
2023-03-28T08:18:12.922Z,6.43
2023-03-28T08:20:39.253Z,6.69
2023-03-28T08:23:07.315Z,6.86
2023-03-28T08:25:33.619Z,6.96
2023-03-28T08:28:00.204Z,7.02
2023-03-28T08:30:26.850Z,7.18
2023-03-28T08:32:53.420Z,7.18
2023-03-28T08:35:19.901Z,7.22
2023-03-28T08:37:46.532Z,7.35
2023-03-28T08:40:17.519Z,7.45
2023-03-28T08:42:56.186Z,7.65
2023-03-28T08:46:01.708Z,7.58
2023-03-28T08:48:37.896Z,7.78
2023-03-28T08:51:13.573Z,7.65
2023-03-28T08:53:44.651Z,7.92
2023-03-28T08:56:15.468Z,7.97
2023-03-28T08:59:03.827Z,8.00
2023-03-28T09:01:32.737Z,8.14
2023-03-28T09:04:00.778Z,8.46
2023-03-28T09:06:45.278Z,8.74
2023-03-28T09:09:38.499Z,8.71
2023-03-28T09:12:41.602Z,8.50
2023-03-28T09:15:27.695Z,8.45
2023-03-28T09:18:23.859Z,8.25
2023-03-28T09:21:31.928Z,7.98
2023-03-28T09:24:17.787Z,8.09
2023-03-28T09:26:52.241Z,8.07
2023-03-28T09:29:24.552Z,8.00
2023-03-28T09:31:58.094Z,8.05
2023-03-28T09:34:30.638Z,8.13
2023-03-28T09:37:02.831Z,8.03
2023-03-28T09:39:37.238Z,8.06
2023-03-28T09:42:16.146Z,8.14
2023-03-28T09:44:58.349Z,8.38
2023-03-28T09:47:24.893Z,8.56
2023-03-28T09:50:02.299Z,8.88
2023-03-28T09:52:36.662Z,9.06
2023-03-28T09:55:03.177Z,9.11
2023-03-28T09:58:06.625Z,9.10
2023-03-28T10:00:46.258Z,9.09
2023-03-28T10:03:32.369Z,8.85
2023-03-28T10:06:00.491Z,8.77
2023-03-28T10:08:28.752Z,8.89
2023-03-28T10:11:12.189Z,8.93
2023-03-28T10:13:45.670Z,8.93
2023-03-28T10:16:15.322Z,8.96
2023-03-28T10:18:43.066Z,9.00
2023-03-28T10:21:14.493Z,9.07
2023-03-28T10:24:02.219Z,9.08
2023-03-28T10:26:29.574Z,9.18
2023-03-28T10:29:02.317Z,9.13
2023-03-28T10:31:32.793Z,8.90
2023-03-28T10:34:00.981Z,8.80
2023-03-28T10:36:40.549Z,8.54
2023-03-28T10:39:22.081Z,8.62
2023-03-28T10:41:56.775Z,8.66
2023-03-28T10:44:41.041Z,8.76
2023-03-28T10:47:14.654Z,8.59
2023-03-28T10:49:47.231Z,8.74
2023-03-28T10:52:35.716Z,9.01
2023-03-28T10:55:05.263Z,8.82
2023-03-28T10:57:46.360Z,9.02
2023-03-28T11:00:23.505Z,9.16
2023-03-28T11:03:12.005Z,9.05
2023-03-28T11:05:54.922Z,9.16
2023-03-28T11:08:45.006Z,9.25
2023-03-28T11:11:29.667Z,9.34
2023-03-28T11:14:18.039Z,9.24
2023-03-28T11:16:54.931Z,9.32
2023-03-28T11:19:41.103Z,9.25
2023-03-28T11:22:30.807Z,9.26
2023-03-28T11:25:12.994Z,9.14
2023-03-28T11:27:54.022Z,9.26
2023-03-28T11:30:34.030Z,9.32
2023-03-28T11:33:31.309Z,9.33
2023-03-28T11:36:05.416Z,9.50
2023-03-28T11:38:39.485Z,9.46
2023-03-28T11:41:13.124Z,9.43
2023-03-28T11:44:08.693Z,9.51
2023-03-28T11:46:45.286Z,9.45
2023-03-28T11:49:19.597Z,9.64
2023-03-28T11:52:01.226Z,9.75
2023-03-28T11:54:27.570Z,9.47
2023-03-28T11:56:58.689Z,9.33
2023-03-28T11:59:57.523Z,9.38
2023-03-28T12:02:30.075Z,9.39
2023-03-28T12:05:26.472Z,9.40
2023-03-28T12:08:05.465Z,9.54
2023-03-28T12:10:36.667Z,9.67
2023-03-28T12:13:18.177Z,9.90
2023-03-28T12:15:59.837Z,10.14
2023-03-28T12:18:47.968Z,10.39
2023-03-28T12:21:38.749Z,10.51
2023-03-28T12:24:14.365Z,10.75
2023-03-28T12:27:15.857Z,10.99
2023-03-28T12:30:21.098Z,10.88
2023-03-28T12:33:14.749Z,11.12
2023-03-28T12:36:04.179Z,11.12
2023-03-28T12:38:36.771Z,10.62
2023-03-28T12:41:06.635Z,10.62
2023-03-28T12:43:44.864Z,10.87
2023-03-28T12:46:15.948Z,11.10
2023-03-28T12:48:54.003Z,11.44
2023-03-28T12:51:39.502Z,11.54
2023-03-28T12:54:15.230Z,11.50
2023-03-28T12:56:46.475Z,11.72
2023-03-28T12:59:41.216Z,11.92
2023-03-28T13:02:33.804Z,12.06
2023-03-28T13:05:15.468Z,11.98
2023-03-28T13:08:18.641Z,11.76
2023-03-28T13:11:00.370Z,11.82
2023-03-28T13:13:33.793Z,12.13
2023-03-28T13:16:00.186Z,12.14
2023-03-28T13:18:31.501Z,12.73
2023-03-28T13:21:00.082Z,12.32
2023-03-28T13:23:47.433Z,11.85
2023-03-28T13:26:14.021Z,11.81
2023-03-28T13:28:45.010Z,11.78
2023-03-28T13:31:24.981Z,11.89
2023-03-28T13:34:01.793Z,11.85
2023-03-28T13:36:32.381Z,11.81
2023-03-28T13:39:07.100Z,11.44
2023-03-28T13:41:52.631Z,11.49
2023-03-28T13:44:22.967Z,11.49
2023-03-28T13:46:50.669Z,11.49
2023-03-28T13:49:23.516Z,11.42
2023-03-28T13:51:58.399Z,11.63
2023-03-28T13:54:25.847Z,11.38
2023-03-28T13:56:53.391Z,11.12
2023-03-28T13:59:19.876Z,11.19
2023-03-28T14:01:50.294Z,11.27
2023-03-28T14:04:19.893Z,11.68
2023-03-28T14:06:46.763Z,11.78
2023-03-28T14:09:32.384Z,12.30
2023-03-28T14:12:08.410Z,12.75
2023-03-28T14:14:42.373Z,13.43
2023-03-28T14:17:14.645Z,13.24
2023-03-28T14:19:45.984Z,13.08
2023-03-28T14:22:21.090Z,13.46
2023-03-28T14:24:52.018Z,13.24
2023-03-28T14:27:36.703Z,13.58
2023-03-28T14:30:16.214Z,13.66
2023-03-28T14:32:57.435Z,14.20
2023-03-28T14:35:29.213Z,14.31
2023-03-28T14:38:01.669Z,13.91
2023-03-28T14:40:35.412Z,13.35
2023-03-28T14:43:07.301Z,13.00
2023-03-28T14:45:37.680Z,13.13
2023-03-28T14:48:08.684Z,12.96
2023-03-28T14:50:38.144Z,12.70
2023-03-28T14:53:07.991Z,12.93
2023-03-28T14:55:37.656Z,12.66
2023-03-28T14:58:06.020Z,12.50
2023-03-28T15:00:38.382Z,12.64
2023-03-28T15:03:10.455Z,12.62
2023-03-28T15:05:37.456Z,12.92
2023-03-28T15:08:05.521Z,13.60
2023-03-28T15:10:32.461Z,14.18
2023-03-28T15:13:20.799Z,14.12
2023-03-28T15:15:48.831Z,13.92
2023-03-28T15:18:19.808Z,13.95
2023-03-28T15:20:51.493Z,13.22
2023-03-28T15:23:33.500Z,13.09
2023-03-28T15:26:04.758Z,12.76
2023-03-28T15:28:31.956Z,12.65
2023-03-28T15:31:02.163Z,12.50
2023-03-28T15:33:32.552Z,12.32
2023-03-28T15:36:33.091Z,12.24
2023-03-28T15:39:02.184Z,12.02
2023-03-28T15:41:46.626Z,11.97
2023-03-28T15:44:34.305Z,12.04
2023-03-28T15:47:09.622Z,11.88
2023-03-28T15:49:37.785Z,11.79
2023-03-28T15:52:09.370Z,11.82
2023-03-28T15:54:40.894Z,11.73
2023-03-28T15:57:12.099Z,11.58
2023-03-28T15:59:48.254Z,11.54
2023-03-28T16:02:23.760Z,11.50
2023-03-28T16:05:14.924Z,11.49
2023-03-28T16:07:45.790Z,11.40
2023-03-28T16:10:20.684Z,11.29
2023-03-28T16:12:48.410Z,11.33
2023-03-28T16:15:15.588Z,11.29
2023-03-28T16:17:43.292Z,11.29
2023-03-28T16:20:29.934Z,11.18
2023-03-28T16:22:56.558Z,11.23
2023-03-28T16:25:22.904Z,11.22
2023-03-28T16:27:49.250Z,11.18
2023-03-28T16:30:24.949Z,11.30
2023-03-28T16:32:52.575Z,11.23
2023-03-28T16:35:19.128Z,11.25
2023-03-28T16:37:45.669Z,11.35
2023-03-28T16:40:12.558Z,11.26
2023-03-28T16:42:38.909Z,11.29
2023-03-28T16:45:06.396Z,11.17
2023-03-28T16:47:32.878Z,11.01
2023-03-28T16:49:59.195Z,11.06
2023-03-28T16:52:27.256Z,11.09
2023-03-28T16:54:54.929Z,11.11
2023-03-28T16:57:21.334Z,11.07
2023-03-28T16:59:47.939Z,11.03
2023-03-28T17:02:14.480Z,10.97
2023-03-28T17:04:41.244Z,10.89
2023-03-28T17:07:07.672Z,10.97
2023-03-28T17:09:34.677Z,10.97
2023-03-28T17:12:01.336Z,11.02
2023-03-28T17:14:27.877Z,10.98
2023-03-28T17:16:54.333Z,10.88
2023-03-28T17:19:23.953Z,10.81
2023-03-28T17:21:50.600Z,10.79
2023-03-28T17:24:16.963Z,10.79
2023-03-28T17:26:43.317Z,10.68
2023-03-28T17:29:11.815Z,10.72
2023-03-28T17:31:38.402Z,10.67
2023-03-28T17:34:04.919Z,10.63
2023-03-28T17:36:31.568Z,10.62
2023-03-28T17:38:58.806Z,10.57
2023-03-28T17:41:27.943Z,10.54
2023-03-28T17:43:56.406Z,10.57
2023-03-28T17:46:23.964Z,10.51
2023-03-28T17:48:50.679Z,10.45
2023-03-28T17:51:17.581Z,10.43
2023-03-28T17:53:46.832Z,10.45
2023-03-28T17:56:13.413Z,10.38
2023-03-28T17:58:39.837Z,10.34
2023-03-28T18:01:10.958Z,10.35
2023-03-28T18:03:39.139Z,10.35
2023-03-28T18:06:06.076Z,10.34
2023-03-28T18:08:32.435Z,10.29
2023-03-28T18:11:18.645Z,10.24
2023-03-28T18:13:45.266Z,10.15
2023-03-28T18:16:13.422Z,10.13
2023-03-28T18:18:40.559Z,10.16
2023-03-28T18:21:08.387Z,10.15
2023-03-28T18:23:35.886Z,10.17
2023-03-28T18:26:02.895Z,10.13
2023-03-28T18:28:29.438Z,10.20
2023-03-28T18:30:56.046Z,10.23
2023-03-28T18:33:22.515Z,10.24
2023-03-28T18:35:49.355Z,10.24
2023-03-28T18:38:16.021Z,10.09
2023-03-28T18:40:42.892Z,10.11
2023-03-28T18:43:09.754Z,10.08
2023-03-28T18:45:36.395Z,10.09
2023-03-28T18:48:03.832Z,10.11
2023-03-28T18:50:31.264Z,10.19
2023-03-28T18:52:57.913Z,10.18
2023-03-28T18:55:24.764Z,10.16
2023-03-28T18:57:52.903Z,10.08
2023-03-28T19:00:20.298Z,10.04
2023-03-28T19:02:48.759Z,10.07
2023-03-28T19:05:16.677Z,10.02
2023-03-28T19:07:44.308Z,10.06
2023-03-28T19:10:13.155Z,9.96
2023-03-28T19:12:41.218Z,9.86
2023-03-28T19:15:10.461Z,9.82
2023-03-28T19:17:38.751Z,9.69
2023-03-28T19:20:07.760Z,9.45
2023-03-28T19:22:35.212Z,9.22
2023-03-28T19:25:01.829Z,9.04
2023-03-28T19:27:28.219Z,8.90
2023-03-28T19:29:54.598Z,8.68
2023-03-28T19:32:21.320Z,8.64
2023-03-28T19:34:47.882Z,8.47
2023-03-28T19:37:14.304Z,8.20
2023-03-28T19:39:40.850Z,8.06
2023-03-28T19:42:07.400Z,8.07
2023-03-28T19:44:33.800Z,7.98
2023-03-28T19:47:00.501Z,7.91
2023-03-28T19:49:26.906Z,7.87
2023-03-28T19:51:53.372Z,7.81
2023-03-28T19:54:19.876Z,7.75
2023-03-28T19:56:46.809Z,7.63
2023-03-28T19:59:13.296Z,7.61
2023-03-28T20:01:39.805Z,7.73
2023-03-28T20:04:06.334Z,7.78
2023-03-28T20:06:32.694Z,7.87
2023-03-28T20:08:59.112Z,7.93
2023-03-28T20:11:26.745Z,7.89
2023-03-28T20:13:53.154Z,8.02
2023-03-28T20:16:19.617Z,7.79
2023-03-28T20:18:46.403Z,7.64
2023-03-28T20:21:13.350Z,7.70
2023-03-28T20:23:40.184Z,7.63
2023-03-28T20:26:21.984Z,7.50
2023-03-28T20:28:52.594Z,7.50
2023-03-28T20:31:19.341Z,7.40
2023-03-28T20:33:46.076Z,7.32
2023-03-28T20:36:12.642Z,7.29
2023-03-28T20:38:39.269Z,7.23
2023-03-28T20:41:11.035Z,7.26
2023-03-28T20:43:40.478Z,7.20
2023-03-28T20:46:07.651Z,7.08
2023-03-28T20:48:37.102Z,7.05
2023-03-28T20:51:05.827Z,7.02
2023-03-28T20:53:33.287Z,7.03
2023-03-28T20:56:01.772Z,6.97
2023-03-28T20:58:29.992Z,6.93
2023-03-28T21:00:57.712Z,6.93
2023-03-28T21:03:39.117Z,7.00
2023-03-28T21:06:06.799Z,7.04
2023-03-28T21:08:36.170Z,7.06
2023-03-28T21:11:03.418Z,7.08
2023-03-28T21:13:30.364Z,7.17
2023-03-28T21:15:57.404Z,7.12
2023-03-28T21:18:23.999Z,7.04
2023-03-28T21:20:50.469Z,6.99
2023-03-28T21:23:16.858Z,6.98
2023-03-28T21:25:45.177Z,6.97
2023-03-28T21:28:12.528Z,6.97
2023-03-28T21:30:40.196Z,6.98
2023-03-28T21:33:07.052Z,6.97
2023-03-28T21:35:34.651Z,6.90
2023-03-28T21:38:01.508Z,6.85
2023-03-28T21:40:27.928Z,6.76
2023-03-28T21:42:54.296Z,6.79
2023-03-28T21:45:21.029Z,6.84
2023-03-28T21:47:47.554Z,6.78
2023-03-28T21:50:15.120Z,6.78
2023-03-28T21:52:41.769Z,6.79
2023-03-28T21:55:09.301Z,6.80
2023-03-28T21:57:36.682Z,6.77
2023-03-28T22:00:14.941Z,6.72
2023-03-28T22:02:42.345Z,6.62
2023-03-28T22:05:18.750Z,6.53
2023-03-28T22:07:53.363Z,6.47
2023-03-28T22:10:20.005Z,6.52
2023-03-28T22:12:46.465Z,6.53
2023-03-28T22:15:14.095Z,6.46
2023-03-28T22:17:41.962Z,6.53
2023-03-28T22:20:13.036Z,6.50
2023-03-28T22:22:42.618Z,6.50
2023-03-28T22:25:10.778Z,6.48
2023-03-28T22:27:38.535Z,6.48
2023-03-28T22:30:09.060Z,6.55
2023-03-28T22:32:38.175Z,6.50
2023-03-28T22:35:05.909Z,6.50
2023-03-28T22:37:33.136Z,6.42
2023-03-28T22:39:59.676Z,6.44
2023-03-28T22:42:26.456Z,6.48
2023-03-28T22:44:53.055Z,6.48
2023-03-28T22:47:19.413Z,6.41
2023-03-28T22:49:45.818Z,6.47
2023-03-28T22:52:13.663Z,6.45
2023-03-28T22:54:42.463Z,6.38
2023-03-28T22:57:09.121Z,6.41
2023-03-28T22:59:36.243Z,6.45
2023-03-28T23:02:03.026Z,6.49
2023-03-28T23:04:29.683Z,6.46
2023-03-28T23:06:56.370Z,6.39
2023-03-28T23:09:24.753Z,6.46
2023-03-28T23:11:52.293Z,6.47
2023-03-28T23:14:18.782Z,6.44
2023-03-28T23:16:45.423Z,6.35
2023-03-28T23:19:11.916Z,6.39
2023-03-28T23:21:38.254Z,6.47
2023-03-28T23:24:05.529Z,6.46
2023-03-28T23:26:31.896Z,6.47
2023-03-28T23:28:58.328Z,6.52
2023-03-28T23:31:24.734Z,6.54
2023-03-28T23:33:51.098Z,6.53
2023-03-28T23:36:20.853Z,6.50
2023-03-28T23:38:48.718Z,6.44
2023-03-28T23:41:15.174Z,6.38
2023-03-28T23:43:41.726Z,6.42
2023-03-28T23:46:08.941Z,6.47
2023-03-28T23:48:36.167Z,6.49
2023-03-28T23:51:03.331Z,6.44
2023-03-28T23:53:30.333Z,6.44
2023-03-28T23:55:56.685Z,6.45
2023-03-28T23:58:23.018Z,6.50
